sensor_id;sensor_type;location;lat;lon;timestamp;temperature;humidity
51855;DHT22;37895;53.240;6.572;2024-01-10T00:02:04;-3.10;99.90
51855;DHT22;37895;53.240;6.572;2024-01-10T00:04:30;-4.30;99.90
51855;DHT22;37895;53.240;6.572;2024-01-10T00:06:55;-3.40;99.90
51855;DHT22;37895;53.240;6.572;2024-01-10T00:09:21;-4.30;99.90
51855;DHT22;37895;53.240;6.572;2024-01-10T00:11:46;-4.40;99.90
51855;DHT22;37895;53.240;6.572;2024-01-10T00:14:12;-3.30;99.90
51855;DHT22;37895;53.240;6.572;2024-01-10T00:16:38;-4.40;99.90
51855;DHT22;37895;53.240;6.572;2024-01-10T00:19:03;-4.40;99.90
51855;DHT22;37895;53.240;6.572;2024-01-10T00:21:29;-4.50;99.90
51855;DHT22;37895;53.240;6.572;2024-01-10T00:23:54;-4.60;99.90
51855;DHT22;37895;53.240;6.572;2024-01-10T00:26:20;-4.60;99.90
51855;DHT22;37895;53.240;6.572;2024-01-10T00:28:46;-4.70;99.90
51855;DHT22;37895;53.240;6.572;2024-01-10T00:31:12;-4.70;99.90
51855;DHT22;37895;53.240;6.572;2024-01-10T00:33:39;-4.80;99.90
51855;DHT22;37895;53.240;6.572;2024-01-10T00:36:05;-4.80;99.90
51855;DHT22;37895;53.240;6.572;2024-01-10T00:38:32;-4.80;99.90
51855;DHT22;37895;53.240;6.572;2024-01-10T00:40:58;-4.80;99.90
51855;DHT22;37895;53.240;6.572;2024-01-10T00:43:24;-4.80;99.90
51855;DHT22;37895;53.240;6.572;2024-01-10T00:45:50;-4.90;99.90
51855;DHT22;37895;53.240;6.572;2024-01-10T00:48:16;-4.90;99.90
51855;DHT22;37895;53.240;6.572;2024-01-10T00:50:43;-4.90;99.90
51855;DHT22;37895;53.240;6.572;2024-01-10T00:53:09;-4.90;99.90
51855;DHT22;37895;53.240;6.572;2024-01-10T00:55:35;-4.90;99.90
51855;DHT22;37895;53.240;6.572;2024-01-10T00:58:01;-5.00;99.90
51855;DHT22;37895;53.240;6.572;2024-01-10T01:00:26;-5.00;99.90
51855;DHT22;37895;53.240;6.572;2024-01-10T01:02:52;-5.00;99.90
51855;DHT22;37895;53.240;6.572;2024-01-10T01:05:18;-5.00;99.90
51855;DHT22;37895;53.240;6.572;2024-01-10T01:07:43;-4.40;99.90
51855;DHT22;37895;53.240;6.572;2024-01-10T01:10:09;-5.00;99.90
51855;DHT22;37895;53.240;6.572;2024-01-10T01:12:35;-5.10;99.90
51855;DHT22;37895;53.240;6.572;2024-01-10T01:15:00;-5.10;99.90
51855;DHT22;37895;53.240;6.572;2024-01-10T01:17:26;-5.10;99.90
51855;DHT22;37895;53.240;6.572;2024-01-10T01:19:51;-5.10;99.90
51855;DHT22;37895;53.240;6.572;2024-01-10T01:22:17;-5.10;99.90
51855;DHT22;37895;53.240;6.572;2024-01-10T01:24:44;-5.10;99.90
51855;DHT22;37895;53.240;6.572;2024-01-10T01:27:09;-5.10;99.90
51855;DHT22;37895;53.240;6.572;2024-01-10T01:29:35;-5.10;99.90
51855;DHT22;37895;53.240;6.572;2024-01-10T01:32:00;-5.10;99.90
51855;DHT22;37895;53.240;6.572;2024-01-10T01:34:26;-5.10;99.90
51855;DHT22;37895;53.240;6.572;2024-01-10T01:36:52;-5.10;99.90
51855;DHT22;37895;53.240;6.572;2024-01-10T01:39:20;-5.10;99.90
51855;DHT22;37895;53.240;6.572;2024-01-10T01:41:46;-4.70;99.90
51855;DHT22;37895;53.240;6.572;2024-01-10T01:44:12;-5.10;99.90
51855;DHT22;37895;53.240;6.572;2024-01-10T01:46:37;-5.10;99.90
51855;DHT22;37895;53.240;6.572;2024-01-10T01:49:05;-5.10;99.90
51855;DHT22;37895;53.240;6.572;2024-01-10T01:51:32;-5.10;99.90
51855;DHT22;37895;53.240;6.572;2024-01-10T01:53:58;-5.10;99.90
51855;DHT22;37895;53.240;6.572;2024-01-10T01:56:24;-5.00;99.90
51855;DHT22;37895;53.240;6.572;2024-01-10T01:58:50;-4.30;99.90
51855;DHT22;37895;53.240;6.572;2024-01-10T02:01:16;-4.70;99.90
51855;DHT22;37895;53.240;6.572;2024-01-10T02:03:42;-5.10;99.90
51855;DHT22;37895;53.240;6.572;2024-01-10T02:06:08;-5.10;99.90
51855;DHT22;37895;53.240;6.572;2024-01-10T02:08:35;-5.10;99.90
51855;DHT22;37895;53.240;6.572;2024-01-10T02:11:01;-5.10;99.90
51855;DHT22;37895;53.240;6.572;2024-01-10T02:13:28;-4.90;99.90
51855;DHT22;37895;53.240;6.572;2024-01-10T02:15:54;-5.10;99.90
51855;DHT22;37895;53.240;6.572;2024-01-10T02:18:20;-5.10;99.90
51855;DHT22;37895;53.240;6.572;2024-01-10T02:20:46;-5.10;99.90
51855;DHT22;37895;53.240;6.572;2024-01-10T02:23:12;-5.10;99.90
51855;DHT22;37895;53.240;6.572;2024-01-10T02:25:39;-5.10;99.90
51855;DHT22;37895;53.240;6.572;2024-01-10T02:28:05;-4.90;99.90
51855;DHT22;37895;53.240;6.572;2024-01-10T02:30:31;-5.20;99.90
51855;DHT22;37895;53.240;6.572;2024-01-10T02:32:56;-5.10;99.90
51855;DHT22;37895;53.240;6.572;2024-01-10T02:35:22;-4.10;99.90
51855;DHT22;37895;53.240;6.572;2024-01-10T02:37:48;-5.10;99.90
51855;DHT22;37895;53.240;6.572;2024-01-10T02:40:17;-5.10;99.90
51855;DHT22;37895;53.240;6.572;2024-01-10T02:42:42;-5.10;99.90
51855;DHT22;37895;53.240;6.572;2024-01-10T02:45:08;-5.10;99.90
51855;DHT22;37895;53.240;6.572;2024-01-10T02:47:34;-5.10;99.90
51855;DHT22;37895;53.240;6.572;2024-01-10T02:50:00;-5.10;99.90
51855;DHT22;37895;53.240;6.572;2024-01-10T02:52:25;-5.10;99.90
51855;DHT22;37895;53.240;6.572;2024-01-10T02:54:51;-5.00;99.90
51855;DHT22;37895;53.240;6.572;2024-01-10T02:57:17;-5.10;99.90
51855;DHT22;37895;53.240;6.572;2024-01-10T02:59:42;-5.00;99.90
51855;DHT22;37895;53.240;6.572;2024-01-10T03:02:08;-5.10;99.90
51855;DHT22;37895;53.240;6.572;2024-01-10T03:04:34;-5.00;99.90
51855;DHT22;37895;53.240;6.572;2024-01-10T03:06:59;-5.10;99.90
51855;DHT22;37895;53.240;6.572;2024-01-10T03:09:25;-5.10;99.90
51855;DHT22;37895;53.240;6.572;2024-01-10T03:11:50;-5.10;99.90
51855;DHT22;37895;53.240;6.572;2024-01-10T03:14:16;-5.10;99.90
51855;DHT22;37895;53.240;6.572;2024-01-10T03:16:42;-5.10;99.90
51855;DHT22;37895;53.240;6.572;2024-01-10T03:19:07;-3.80;99.90
51855;DHT22;37895;53.240;6.572;2024-01-10T03:21:33;-5.10;99.90
51855;DHT22;37895;53.240;6.572;2024-01-10T03:24:00;-5.10;99.90
51855;DHT22;37895;53.240;6.572;2024-01-10T03:26:27;-4.20;99.90
51855;DHT22;37895;53.240;6.572;2024-01-10T03:28:53;-5.20;99.90
51855;DHT22;37895;53.240;6.572;2024-01-10T03:31:18;-5.20;99.90
51855;DHT22;37895;53.240;6.572;2024-01-10T03:33:44;-5.30;99.90
51855;DHT22;37895;53.240;6.572;2024-01-10T03:36:16;-5.20;99.90
51855;DHT22;37895;53.240;6.572;2024-01-10T03:38:42;-5.20;99.90
51855;DHT22;37895;53.240;6.572;2024-01-10T03:41:07;-5.20;99.90
51855;DHT22;37895;53.240;6.572;2024-01-10T03:43:33;-5.20;99.90
51855;DHT22;37895;53.240;6.572;2024-01-10T03:45:59;-5.20;99.90
51855;DHT22;37895;53.240;6.572;2024-01-10T03:48:24;-5.30;99.90
51855;DHT22;37895;53.240;6.572;2024-01-10T03:50:50;-5.30;99.90
51855;DHT22;37895;53.240;6.572;2024-01-10T03:53:16;-5.30;99.90
51855;DHT22;37895;53.240;6.572;2024-01-10T03:55:42;-5.30;99.90
51855;DHT22;37895;53.240;6.572;2024-01-10T03:58:07;-5.30;99.90
51855;DHT22;37895;53.240;6.572;2024-01-10T04:00:33;-5.30;99.90
51855;DHT22;37895;53.240;6.572;2024-01-10T04:02:59;-5.30;99.90
51855;DHT22;37895;53.240;6.572;2024-01-10T04:05:24;-5.30;99.90
51855;DHT22;37895;53.240;6.572;2024-01-10T04:07:51;-5.30;99.90
51855;DHT22;37895;53.240;6.572;2024-01-10T04:10:17;-5.30;99.90
51855;DHT22;37895;53.240;6.572;2024-01-10T04:12:44;-5.30;99.90
51855;DHT22;37895;53.240;6.572;2024-01-10T04:15:10;-5.30;99.90
51855;DHT22;37895;53.240;6.572;2024-01-10T04:17:36;-5.40;99.90
51855;DHT22;37895;53.240;6.572;2024-01-10T04:20:02;-5.40;99.90
51855;DHT22;37895;53.240;6.572;2024-01-10T04:22:28;-5.30;99.90
51855;DHT22;37895;53.240;6.572;2024-01-10T04:24:56;-5.40;99.90
51855;DHT22;37895;53.240;6.572;2024-01-10T04:27:22;-5.30;99.90
51855;DHT22;37895;53.240;6.572;2024-01-10T04:29:48;-5.30;99.90
51855;DHT22;37895;53.240;6.572;2024-01-10T04:32:14;-5.30;99.90
51855;DHT22;37895;53.240;6.572;2024-01-10T04:34:39;-5.30;99.90
51855;DHT22;37895;53.240;6.572;2024-01-10T04:37:05;-3.80;99.90
51855;DHT22;37895;53.240;6.572;2024-01-10T04:39:33;-5.40;99.90
51855;DHT22;37895;53.240;6.572;2024-01-10T04:41:59;-3.90;99.90
51855;DHT22;37895;53.240;6.572;2024-01-10T04:44:24;-5.40;99.90
51855;DHT22;37895;53.240;6.572;2024-01-10T04:46:50;-5.40;99.90
51855;DHT22;37895;53.240;6.572;2024-01-10T04:49:16;-5.40;99.90
51855;DHT22;37895;53.240;6.572;2024-01-10T04:51:41;-5.40;99.90
51855;DHT22;37895;53.240;6.572;2024-01-10T04:54:08;-5.40;99.90
51855;DHT22;37895;53.240;6.572;2024-01-10T04:56:34;-5.40;99.90
51855;DHT22;37895;53.240;6.572;2024-01-10T04:59:01;-5.50;99.90
51855;DHT22;37895;53.240;6.572;2024-01-10T05:01:27;-5.50;99.90
51855;DHT22;37895;53.240;6.572;2024-01-10T05:03:53;-5.50;99.90
51855;DHT22;37895;53.240;6.572;2024-01-10T05:08:44;-5.50;99.90
51855;DHT22;37895;53.240;6.572;2024-01-10T05:11:10;-5.50;99.90
51855;DHT22;37895;53.240;6.572;2024-01-10T05:13:36;-5.50;99.90
51855;DHT22;37895;53.240;6.572;2024-01-10T05:16:02;-5.50;99.90
51855;DHT22;37895;53.240;6.572;2024-01-10T05:18:28;-5.60;99.90
51855;DHT22;37895;53.240;6.572;2024-01-10T05:20:53;-5.50;99.90
51855;DHT22;37895;53.240;6.572;2024-01-10T05:23:19;-5.50;99.90
51855;DHT22;37895;53.240;6.572;2024-01-10T05:25:45;-5.50;99.90
51855;DHT22;37895;53.240;6.572;2024-01-10T05:28:10;-5.50;99.90
51855;DHT22;37895;53.240;6.572;2024-01-10T05:30:36;-5.50;99.90
51855;DHT22;37895;53.240;6.572;2024-01-10T05:33:02;-5.90;99.90
51855;DHT22;37895;53.240;6.572;2024-01-10T05:35:28;-5.50;99.90
51855;DHT22;37895;53.240;6.572;2024-01-10T05:37:54;-5.60;99.90
51855;DHT22;37895;53.240;6.572;2024-01-10T05:40:20;-5.00;99.90
51855;DHT22;37895;53.240;6.572;2024-01-10T05:42:45;-5.50;99.90
51855;DHT22;37895;53.240;6.572;2024-01-10T05:45:11;-5.60;99.90
51855;DHT22;37895;53.240;6.572;2024-01-10T05:47:37;-5.60;99.90
51855;DHT22;37895;53.240;6.572;2024-01-10T05:50:03;-5.60;99.90
51855;DHT22;37895;53.240;6.572;2024-01-10T05:52:31;-5.70;99.90
51855;DHT22;37895;53.240;6.572;2024-01-10T05:54:59;-5.70;99.90
51855;DHT22;37895;53.240;6.572;2024-01-10T05:57:27;-5.60;99.90
51855;DHT22;37895;53.240;6.572;2024-01-10T05:59:52;-5.60;99.90
51855;DHT22;37895;53.240;6.572;2024-01-10T06:02:21;-5.60;99.90
51855;DHT22;37895;53.240;6.572;2024-01-10T06:04:46;-5.20;99.90
51855;DHT22;37895;53.240;6.572;2024-01-10T06:07:12;-5.60;99.90
51855;DHT22;37895;53.240;6.572;2024-01-10T06:09:38;-4.60;99.90
51855;DHT22;37895;53.240;6.572;2024-01-10T06:12:05;-5.70;99.90
51855;DHT22;37895;53.240;6.572;2024-01-10T06:14:32;-5.70;99.90
51855;DHT22;37895;53.240;6.572;2024-01-10T06:16:57;-5.70;99.90
51855;DHT22;37895;53.240;6.572;2024-01-10T06:19:25;-5.70;99.90
51855;DHT22;37895;53.240;6.572;2024-01-10T06:21:50;-5.70;99.90
51855;DHT22;37895;53.240;6.572;2024-01-10T06:24:17;-5.70;99.90
51855;DHT22;37895;53.240;6.572;2024-01-10T06:26:43;-5.70;99.90
51855;DHT22;37895;53.240;6.572;2024-01-10T06:29:09;-5.70;99.90
51855;DHT22;37895;53.240;6.572;2024-01-10T06:31:34;-5.70;99.90
51855;DHT22;37895;53.240;6.572;2024-01-10T06:34:00;-5.70;99.90
51855;DHT22;37895;53.240;6.572;2024-01-10T06:36:26;-5.70;99.90
51855;DHT22;37895;53.240;6.572;2024-01-10T06:38:51;-5.70;99.90
51855;DHT22;37895;53.240;6.572;2024-01-10T06:41:17;-5.70;99.90
51855;DHT22;37895;53.240;6.572;2024-01-10T06:43:42;-5.70;99.90
51855;DHT22;37895;53.240;6.572;2024-01-10T06:46:09;-5.70;99.90
51855;DHT22;37895;53.240;6.572;2024-01-10T06:48:36;-5.70;99.90
51855;DHT22;37895;53.240;6.572;2024-01-10T06:51:01;-5.60;99.90
51855;DHT22;37895;53.240;6.572;2024-01-10T06:53:27;-5.60;99.90
51855;DHT22;37895;53.240;6.572;2024-01-10T06:55:53;-5.60;99.90
51855;DHT22;37895;53.240;6.572;2024-01-10T06:58:18;-5.50;99.90
51855;DHT22;37895;53.240;6.572;2024-01-10T07:00:44;-5.50;99.90
51855;DHT22;37895;53.240;6.572;2024-01-10T07:03:09;-5.40;99.90
51855;DHT22;37895;53.240;6.572;2024-01-10T07:05:35;-4.60;99.90
51855;DHT22;37895;53.240;6.572;2024-01-10T07:08:02;-5.40;99.90
51855;DHT22;37895;53.240;6.572;2024-01-10T07:10:29;-5.40;99.90
51855;DHT22;37895;53.240;6.572;2024-01-10T07:12:55;-5.40;99.90
51855;DHT22;37895;53.240;6.572;2024-01-10T07:15:21;-5.30;99.90
51855;DHT22;37895;53.240;6.572;2024-01-10T07:17:47;-5.30;99.90
51855;DHT22;37895;53.240;6.572;2024-01-10T07:20:13;-5.30;99.90
51855;DHT22;37895;53.240;6.572;2024-01-10T07:22:38;-5.30;99.90
51855;DHT22;37895;53.240;6.572;2024-01-10T07:25:10;-4.70;99.90
51855;DHT22;37895;53.240;6.572;2024-01-10T07:27:36;-5.40;99.90
51855;DHT22;37895;53.240;6.572;2024-01-10T07:30:07;-5.30;99.90
51855;DHT22;37895;53.240;6.572;2024-01-10T07:32:39;-5.30;99.90
51855;DHT22;37895;53.240;6.572;2024-01-10T07:35:06;-5.30;99.90
51855;DHT22;37895;53.240;6.572;2024-01-10T07:37:37;-5.30;99.90
51855;DHT22;37895;53.240;6.572;2024-01-10T07:40:04;-5.30;99.90
51855;DHT22;37895;53.240;6.572;2024-01-10T07:42:33;-5.30;99.90
51855;DHT22;37895;53.240;6.572;2024-01-10T07:45:00;-5.40;99.90
51855;DHT22;37895;53.240;6.572;2024-01-10T07:47:25;-5.40;99.90
51855;DHT22;37895;53.240;6.572;2024-01-10T07:49:51;-5.40;99.90
51855;DHT22;37895;53.240;6.572;2024-01-10T07:52:17;-5.40;99.90
51855;DHT22;37895;53.240;6.572;2024-01-10T07:54:42;-5.40;99.90
51855;DHT22;37895;53.240;6.572;2024-01-10T07:57:08;-5.40;99.90
51855;DHT22;37895;53.240;6.572;2024-01-10T07:59:34;-5.40;99.90
51855;DHT22;37895;53.240;6.572;2024-01-10T08:02:00;-5.40;99.90
51855;DHT22;37895;53.240;6.572;2024-01-10T08:04:29;-5.40;99.90
51855;DHT22;37895;53.240;6.572;2024-01-10T08:06:55;-5.40;99.90
51855;DHT22;37895;53.240;6.572;2024-01-10T08:09:21;-5.40;99.90
51855;DHT22;37895;53.240;6.572;2024-01-10T08:11:47;-5.40;99.90
51855;DHT22;37895;53.240;6.572;2024-01-10T08:14:13;-5.40;99.90
51855;DHT22;37895;53.240;6.572;2024-01-10T08:16:39;-5.40;99.90
51855;DHT22;37895;53.240;6.572;2024-01-10T08:19:05;-5.40;99.90
51855;DHT22;37895;53.240;6.572;2024-01-10T08:21:30;-5.40;99.90
51855;DHT22;37895;53.240;6.572;2024-01-10T08:23:56;-5.30;99.90
51855;DHT22;37895;53.240;6.572;2024-01-10T08:26:21;-5.30;99.90
51855;DHT22;37895;53.240;6.572;2024-01-10T08:28:47;-5.20;99.90
51855;DHT22;37895;53.240;6.572;2024-01-10T08:31:16;-5.20;99.90
51855;DHT22;37895;53.240;6.572;2024-01-10T08:33:42;-5.10;99.90
51855;DHT22;37895;53.240;6.572;2024-01-10T08:36:07;-5.20;99.90
51855;DHT22;37895;53.240;6.572;2024-01-10T08:38:35;-5.00;99.90
51855;DHT22;37895;53.240;6.572;2024-01-10T08:41:01;-5.00;99.90
51855;DHT22;37895;53.240;6.572;2024-01-10T08:43:27;-5.00;99.90
51855;DHT22;37895;53.240;6.572;2024-01-10T08:45:53;-5.00;99.90
51855;DHT22;37895;53.240;6.572;2024-01-10T08:48:18;-4.90;99.90
51855;DHT22;37895;53.240;6.572;2024-01-10T08:50:44;-4.90;99.90
51855;DHT22;37895;53.240;6.572;2024-01-10T08:53:10;-4.80;99.90
51855;DHT22;37895;53.240;6.572;2024-01-10T08:55:36;-4.00;99.90
51855;DHT22;37895;53.240;6.572;2024-01-10T08:58:03;-4.70;99.90
51855;DHT22;37895;53.240;6.572;2024-01-10T09:00:29;-4.70;99.90
51855;DHT22;37895;53.240;6.572;2024-01-10T09:02:55;-4.60;99.90
51855;DHT22;37895;53.240;6.572;2024-01-10T09:05:20;-4.00;99.90
51855;DHT22;37895;53.240;6.572;2024-01-10T09:07:47;-4.60;99.90
51855;DHT22;37895;53.240;6.572;2024-01-10T09:10:12;-4.60;99.90
51855;DHT22;37895;53.240;6.572;2024-01-10T09:12:38;-4.50;99.90
51855;DHT22;37895;53.240;6.572;2024-01-10T09:15:04;-4.50;99.90
51855;DHT22;37895;53.240;6.572;2024-01-10T09:17:30;-4.40;99.90
51855;DHT22;37895;53.240;6.572;2024-01-10T09:19:56;-4.10;99.90
51855;DHT22;37895;53.240;6.572;2024-01-10T09:22:21;-4.40;99.90
51855;DHT22;37895;53.240;6.572;2024-01-10T09:24:47;-4.30;99.90
51855;DHT22;37895;53.240;6.572;2024-01-10T09:27:13;-4.30;99.90
51855;DHT22;37895;53.240;6.572;2024-01-10T09:29:38;-4.20;99.90
51855;DHT22;37895;53.240;6.572;2024-01-10T09:32:04;-4.10;99.90
51855;DHT22;37895;53.240;6.572;2024-01-10T09:34:30;-4.10;99.90
51855;DHT22;37895;53.240;6.572;2024-01-10T09:36:57;-3.70;99.90
51855;DHT22;37895;53.240;6.572;2024-01-10T09:39:23;-3.60;99.90
51855;DHT22;37895;53.240;6.572;2024-01-10T09:41:49;-4.00;99.90
51855;DHT22;37895;53.240;6.572;2024-01-10T09:44:17;-4.00;99.90
51855;DHT22;37895;53.240;6.572;2024-01-10T09:46:52;-3.90;99.90
51855;DHT22;37895;53.240;6.572;2024-01-10T09:49:19;-3.80;99.90
51855;DHT22;37895;53.240;6.572;2024-01-10T09:51:48;-3.50;99.90
51855;DHT22;37895;53.240;6.572;2024-01-10T09:54:15;-2.50;99.90
51855;DHT22;37895;53.240;6.572;2024-01-10T09:56:42;-2.40;99.90
51855;DHT22;37895;53.240;6.572;2024-01-10T09:59:07;-3.60;99.90
51855;DHT22;37895;53.240;6.572;2024-01-10T10:01:37;-3.50;99.90
51855;DHT22;37895;53.240;6.572;2024-01-10T10:04:04;-3.40;99.90
51855;DHT22;37895;53.240;6.572;2024-01-10T10:06:33;-3.40;99.90
51855;DHT22;37895;53.240;6.572;2024-01-10T10:08:59;-3.30;99.90
51855;DHT22;37895;53.240;6.572;2024-01-10T10:11:25;-3.30;99.90
51855;DHT22;37895;53.240;6.572;2024-01-10T10:13:51;-3.30;99.90
51855;DHT22;37895;53.240;6.572;2024-01-10T10:16:23;-3.20;99.90
51855;DHT22;37895;53.240;6.572;2024-01-10T10:18:50;-3.20;99.90
51855;DHT22;37895;53.240;6.572;2024-01-10T10:21:16;-3.10;99.90
51855;DHT22;37895;53.240;6.572;2024-01-10T10:23:57;-3.10;99.90
51855;DHT22;37895;53.240;6.572;2024-01-10T10:34:45;-1.80;99.90
51855;DHT22;37895;53.240;6.572;2024-01-10T10:37:11;-3.00;99.90
51855;DHT22;37895;53.240;6.572;2024-01-10T10:39:37;-2.90;99.90
51855;DHT22;37895;53.240;6.572;2024-01-10T10:42:03;-2.80;99.90
51855;DHT22;37895;53.240;6.572;2024-01-10T10:44:32;-2.70;99.90
51855;DHT22;37895;53.240;6.572;2024-01-10T10:47:04;-2.70;99.90
51855;DHT22;37895;53.240;6.572;2024-01-10T10:49:31;-2.60;99.90
51855;DHT22;37895;53.240;6.572;2024-01-10T10:51:59;-2.50;99.90
51855;DHT22;37895;53.240;6.572;2024-01-10T10:54:28;-2.50;99.90
51855;DHT22;37895;53.240;6.572;2024-01-10T10:56:57;-2.50;99.90
51855;DHT22;37895;53.240;6.572;2024-01-10T10:59:26;-2.50;99.90
51855;DHT22;37895;53.240;6.572;2024-01-10T11:01:52;-2.40;99.90
